Terminal Aerodrome Forecast
Issued by NWS

Home | Current Version | Previous Version | Text Only | Print | Product List | Glossary On
Versions: 1 2 3 4 5 6 7 8 9 10 11 12 13 14 15 16 17 18 19 20
000
FTUS43 KOAX 031933 AAA
TAFCDR
TAF AMD
KCDR 031933Z 0320/0418 01003KT 1SM -SN BKN016
      TEMPO 0320/0321 3/4SM -SHSN
     FM040100 34007KT P6SM SCT060
     FM040600 28006KT P6SM SKC=

USA.gov is the U.S. government's official web portal to all federal, state and local government web resources and services.